createdAt,value
2023-04-17T00:06:24.325Z,3.70
2023-04-17T00:14:32.363Z,2.70
2023-04-17T00:22:37.902Z,3.00
2023-04-17T00:30:46.163Z,3.72
2023-04-17T00:38:51.639Z,2.28
2023-04-17T00:47:00.194Z,2.70
2023-04-17T00:55:06.651Z,2.72
2023-04-17T01:03:15.038Z,3.53
2023-04-17T01:11:20.588Z,3.20
2023-04-17T01:19:29.606Z,4.07
2023-04-17T01:27:38.190Z,6.28
2023-04-17T01:35:43.842Z,5.15
2023-04-17T01:43:52.056Z,5.75
2023-04-17T01:51:57.587Z,5.57
2023-04-17T02:00:07.478Z,5.80
2023-04-17T02:08:17.929Z,4.43
2023-04-17T02:16:26.193Z,4.68
2023-04-17T02:24:31.798Z,6.05
2023-04-17T02:32:41.727Z,7.13
2023-04-17T02:40:47.291Z,8.40
2023-04-17T02:48:55.508Z,7.13
2023-04-17T02:57:02.041Z,7.90
2023-04-17T03:05:11.742Z,8.57
2023-04-17T03:13:17.298Z,10.27
2023-04-17T03:21:25.423Z,7.63
2023-04-17T03:29:31.526Z,7.28
2023-04-17T03:37:39.838Z,7.82
2023-04-17T03:45:45.594Z,7.15
2023-04-17T03:53:53.759Z,12.98
2023-04-17T04:01:59.383Z,11.05
2023-04-17T04:10:11.137Z,14.98
2023-04-17T04:18:17.926Z,13.73
2023-04-17T04:26:27.481Z,14.70
2023-04-17T04:34:36.662Z,12.68
2023-04-17T04:42:50.040Z,14.63
2023-04-17T04:51:07.601Z,12.40
2023-04-17T04:59:15.929Z,13.40
2023-04-17T05:07:27.625Z,13.50
2023-04-17T05:15:36.931Z,12.30
2023-04-17T05:23:43.004Z,12.73
2023-04-17T05:31:52.320Z,16.05
2023-04-17T05:40:16.441Z,15.82
2023-04-17T05:48:24.642Z,11.98
2023-04-17T05:56:32.522Z,12.20
2023-04-17T06:04:42.000Z,13.07
2023-04-17T06:12:47.946Z,11.52
2023-04-17T06:20:56.040Z,13.38
2023-04-17T06:29:01.590Z,9.57
2023-04-17T06:37:12.432Z,11.15
2023-04-17T06:45:18.870Z,10.63
2023-04-17T06:53:27.438Z,9.77
2023-04-17T07:01:33.048Z,10.77
2023-04-17T07:09:43.217Z,9.32
2023-04-17T07:17:48.747Z,7.05
2023-04-17T07:25:56.826Z,6.32
2023-04-17T07:34:02.298Z,5.55
2023-04-17T07:42:11.653Z,4.57
2023-04-17T07:50:17.481Z,5.35
2023-04-17T07:58:27.328Z,4.70
2023-04-17T08:06:32.753Z,4.32
2023-04-17T08:14:41.092Z,4.55
2023-04-17T08:22:48.957Z,5.63
2023-04-17T08:30:57.342Z,6.20
2023-04-17T08:39:02.842Z,5.07
2023-04-17T08:47:11.022Z,5.75
2023-04-17T08:55:17.896Z,4.78
2023-04-17T09:03:26.163Z,5.93
2023-04-17T09:11:31.796Z,4.43
2023-04-17T09:19:39.912Z,4.82
2023-04-17T09:27:45.516Z,3.75
2023-04-17T09:35:53.611Z,3.65
2023-04-17T09:44:02.231Z,2.70
2023-04-17T09:52:10.659Z,3.63
2023-04-17T10:00:17.776Z,5.30
2023-04-17T10:08:26.255Z,7.13
2023-04-17T10:16:39.246Z,2.90
2023-04-17T10:24:47.658Z,2.85
2023-04-17T10:33:25.949Z,4.68
2023-04-17T10:41:35.663Z,4.72
2023-04-17T10:49:52.129Z,4.47
2023-04-17T10:58:03.911Z,4.03
2023-04-17T11:06:10.513Z,5.50
2023-04-17T11:14:20.223Z,4.30
2023-04-17T11:22:25.809Z,3.47
2023-04-17T11:30:35.445Z,6.03
2023-04-17T11:38:49.104Z,2.95
2023-04-17T11:46:59.244Z,6.25
2023-04-17T11:55:04.806Z,3.40
2023-04-17T12:03:38.335Z,3.20
2023-04-17T12:11:43.844Z,2.30
2023-04-17T12:19:52.166Z,2.42
2023-04-17T12:27:59.467Z,3.22
2023-04-17T12:36:09.093Z,3.00
2023-04-17T12:44:15.023Z,6.28
2023-04-17T12:52:23.332Z,3.45
2023-04-17T13:00:28.968Z,4.05
2023-04-17T13:08:37.142Z,2.53
2023-04-17T13:16:42.580Z,1.92
2023-04-17T13:24:50.682Z,4.95
2023-04-17T13:32:56.175Z,4.18
2023-04-17T13:41:04.413Z,3.80
2023-04-17T13:49:10.531Z,2.40
2023-04-17T13:57:19.771Z,2.63
2023-04-17T14:05:26.963Z,2.28
2023-04-17T14:13:35.014Z,1.48
2023-04-17T14:21:40.535Z,2.20
2023-04-17T14:29:48.723Z,1.52
2023-04-17T14:37:54.192Z,1.48
2023-04-17T14:46:02.457Z,2.00
2023-04-17T14:54:08.627Z,0.82
2023-04-17T15:02:16.902Z,1.77
2023-04-17T15:10:22.447Z,2.80
2023-04-17T15:18:30.510Z,2.63
2023-04-17T15:26:36.051Z,2.10
2023-04-17T15:34:44.242Z,2.97
2023-04-17T15:42:49.757Z,3.33
2023-04-17T15:50:57.824Z,3.35
2023-04-17T15:59:03.327Z,1.92
2023-04-17T16:07:11.879Z,4.03
2023-04-17T16:15:20.047Z,2.88
2023-04-17T16:23:28.149Z,3.20
2023-04-17T16:31:33.626Z,3.35
2023-04-17T16:39:41.928Z,4.85
2023-04-17T16:47:47.461Z,4.07
2023-04-17T16:55:56.999Z,2.45
2023-04-17T17:04:02.641Z,5.88
2023-04-17T17:12:11.290Z,5.15
2023-04-17T17:20:16.964Z,4.15
2023-04-17T17:28:25.083Z,7.10
2023-04-17T17:36:31.576Z,3.83
2023-04-17T17:44:39.816Z,5.15
2023-04-17T17:52:45.310Z,5.50
2023-04-17T18:00:53.979Z,3.38
2023-04-17T18:08:59.925Z,6.55
2023-04-17T18:17:07.881Z,3.95
2023-04-17T18:25:15.307Z,2.55
2023-04-17T18:33:23.962Z,3.28
2023-04-17T18:41:29.869Z,3.03
2023-04-17T18:49:37.968Z,4.22
2023-04-17T18:57:43.537Z,5.00
2023-04-17T19:05:51.633Z,2.72
2023-04-17T19:13:57.269Z,3.42
2023-04-17T19:22:05.456Z,5.00
2023-04-17T19:30:12.467Z,3.55
2023-04-17T19:38:20.583Z,3.58
2023-04-17T19:46:28.009Z,4.05
2023-04-17T19:54:36.071Z,4.97
2023-04-17T20:02:41.719Z,4.53
2023-04-17T20:10:52.962Z,4.03
2023-04-17T20:18:58.603Z,2.92
2023-04-17T20:27:06.861Z,4.15
2023-04-17T20:35:13.452Z,5.82
2023-04-17T20:43:21.527Z,4.93
2023-04-17T20:51:28.080Z,4.38
2023-04-17T20:59:37.487Z,6.25
2023-04-17T21:07:42.902Z,6.97
2023-04-17T21:15:54.688Z,5.25
2023-04-17T21:24:00.289Z,4.20
2023-04-17T21:32:08.667Z,5.53
2023-04-17T21:40:15.454Z,5.28
2023-04-17T21:48:23.766Z,3.92
2023-04-17T21:56:29.232Z,7.50
2023-04-17T22:04:37.344Z,4.32
2023-04-17T22:12:42.800Z,5.90
2023-04-17T22:20:50.953Z,5.00
2023-04-17T22:28:56.371Z,4.28
2023-04-17T22:37:04.392Z,7.95
2023-04-17T22:45:10.763Z,6.15
2023-04-17T22:53:18.868Z,5.10
2023-04-17T23:01:24.405Z,5.63
2023-04-17T23:09:32.504Z,3.90
2023-04-17T23:17:38.066Z,5.25
2023-04-17T23:25:46.335Z,4.20
2023-04-17T23:33:51.736Z,6.25
2023-04-17T23:42:00.832Z,5.57
2023-04-17T23:50:06.466Z,5.72
2023-04-17T23:58:14.939Z,4.97
